TimeEDT,TemperatureF,Dew PointF,Humidity,Sea Level PressureIn,VisibilityMPH,Wind Direction,Wind SpeedMPH,Gust SpeedMPH,PrecipitationIn,Events,Conditions,WindDirDegrees,DateUTC
12:54 AM,48.9,43.0,80,30.22,-9999.0,NNE,6.9,-,0.00,Rain,Light Rain,20,2012-10-09 04:54:00
1:54 AM,50.0,43.0,77,30.21,-9999.0,NNE,9.2,-,0.00,,Overcast,30,2012-10-09 05:54:00
2:54 AM,50.0,43.0,77,30.21,-9999.0,NNE,10.4,-,N/A,,Overcast,20,2012-10-09 06:54:00
3:54 AM,50.0,44.1,80,30.20,-9999.0,NNE,10.4,-,N/A,,Overcast,30,2012-10-09 07:54:00
4:05 AM,50.0,44.6,82,30.20,-9999.0,NNE,9.2,-,N/A,,Overcast,30,2012-10-09 08:05:00
4:54 AM,50.0,44.1,80,30.20,-9999.0,NNE,9.2,-,N/A,,Overcast,20,2012-10-09 08:54:00
5:54 AM,48.9,46.0,90,30.20,-9999.0,North,6.9,-,0.03,Rain,Light Rain,10,2012-10-09 09:54:00
6:54 AM,50.0,46.9,89,30.19,-9999.0,NNE,9.2,-,0.05,Rain,Light Rain,30,2012-10-09 10:54:00
7:54 AM,50.0,46.9,89,30.19,10.0,NNE,9.2,-,0.00,,Overcast,30,2012-10-09 11:54:00
8:07 AM,50.0,46.4,87,30.20,10.0,NNE,6.9,-,N/A,,Overcast,20,2012-10-09 12:07:00
8:14 AM,50.0,46.4,87,30.20,10.0,North,6.9,-,N/A,,Overcast,10,2012-10-09 12:14:00
8:54 AM,50.0,48.0,93,30.20,5.0,North,9.2,-,0.01,Rain,Light Rain,10,2012-10-09 12:54:00
9:54 AM,52.0,48.9,89,30.20,7.0,NNE,9.2,-,0.00,,Overcast,30,2012-10-09 13:54:00
10:50 AM,53.6,50.0,88,30.20,7.0,NE,9.2,-,N/A,,Overcast,40,2012-10-09 14:50:00
10:54 AM,53.1,50.0,89,30.20,7.0,NE,9.2,-,N/A,,Overcast,40,2012-10-09 14:54:00
11:54 AM,55.0,51.1,86,30.18,10.0,NE,9.2,-,N/A,,Overcast,40,2012-10-09 15:54:00
12:54 PM,55.9,51.1,84,30.17,10.0,NE,9.2,-,N/A,,Overcast,40,2012-10-09 16:54:00
1:19 PM,55.4,51.8,88,30.16,3.0,NE,8.1,-,N/A,,Overcast,40,2012-10-09 17:19:00
1:21 PM,55.4,51.8,88,30.15,3.0,NE,9.2,-,N/A,,Overcast,40,2012-10-09 17:21:00
1:54 PM,57.0,54.0,89,30.14,-9999.0,NE,8.1,-,0.00,,Overcast,40,2012-10-09 17:54:00
2:05 PM,57.2,53.6,88,30.14,3.0,NNE,9.2,-,N/A,,Overcast,20,2012-10-09 18:05:00
2:23 PM,57.2,53.6,88,30.13,3.0,NE,6.9,-,N/A,,Overcast,50,2012-10-09 18:23:00
2:51 PM,57.2,53.6,88,30.13,3.0,NE,10.4,-,N/A,,Overcast,40,2012-10-09 18:51:00
2:54 PM,57.9,54.0,87,30.13,3.0,NE,10.4,-,N/A,,Overcast,40,2012-10-09 18:54:00
3:54 PM,57.0,54.0,89,30.13,3.0,NE,5.8,-,N/A,,Overcast,40,2012-10-09 19:54:00
4:54 PM,57.0,53.1,87,30.12,3.0,NE,6.9,-,N/A,,Overcast,40,2012-10-09 20:54:00
5:54 PM,57.0,54.0,89,30.12,3.0,NE,6.9,-,N/A,,Overcast,40,2012-10-09 21:54:00
6:27 PM,55.4,55.4,100,30.12,3.0,North,6.9,-,N/A,,Overcast,10,2012-10-09 22:27:00
6:47 PM,55.4,53.6,94,30.12,1.0,NNE,4.6,-,0.00,Rain,Light Rain,30,2012-10-09 22:47:00
6:54 PM,55.9,55.0,97,30.12,1.0,North,3.5,-,0.00,Rain,Light Rain,10,2012-10-09 22:54:00
7:54 PM,55.9,55.0,97,30.11,1.0,NE,4.6,-,0.01,,Overcast,40,2012-10-09 23:54:00
8:54 PM,55.9,55.0,97,30.11,1.0,NE,6.9,-,N/A,,Overcast,40,2012-10-10 00:54:00
9:54 PM,55.9,55.0,97,30.10,-9999.0,NE,8.1,-,N/A,,Overcast,40,2012-10-10 01:54:00
10:54 PM,55.9,55.0,97,30.09,-9999.0,North,8.1,-,N/A,,Overcast,10,2012-10-10 02:54:00
11:41 PM,55.4,55.4,100,30.08,-9999.0,NE,9.2,-,0.01,Rain,Light Rain,40,2012-10-10 03:41:00
11:54 PM,55.9,55.0,97,30.08,-9999.0,NE,8.1,-,0.02,,Overcast,40,2012-10-10 03:54:00